createdAt,value
2019-02-27T00:01:49.941Z,102940.70
2019-02-27T00:04:19.230Z,102939.39
2019-02-27T00:06:48.650Z,102938.12
2019-02-27T00:09:18.005Z,102943.33
2019-02-27T00:11:47.348Z,102934.27
2019-02-27T00:14:16.711Z,102929.52
2019-02-27T00:16:46.050Z,102936.47
2019-02-27T00:19:15.398Z,102930.39
2019-02-27T00:21:44.751Z,102926.95
2019-02-27T00:24:14.099Z,102928.70
2019-02-27T00:26:43.434Z,102923.94
2019-02-27T00:29:12.756Z,102917.87
2019-02-27T00:31:45.121Z,102916.61
2019-02-27T00:34:13.314Z,102912.27
2019-02-27T00:36:44.819Z,102908.80
2019-02-27T00:39:14.814Z,102900.60
2019-02-27T00:41:46.026Z,102899.75
2019-02-27T00:44:15.230Z,102904.50
2019-02-27T00:46:47.076Z,102892.84
2019-02-27T00:49:18.259Z,102892.36
2019-02-27T00:51:47.587Z,102885.47
2019-02-27T00:54:16.912Z,102881.55
2019-02-27T00:56:46.259Z,102884.16
2019-02-27T00:59:15.599Z,102883.75
2019-02-27T01:01:47.295Z,102880.28
2019-02-27T01:04:16.004Z,102873.79
2019-02-27T01:06:47.458Z,102874.65
2019-02-27T01:09:17.690Z,102874.67
2019-02-27T01:11:51.446Z,102869.03
2019-02-27T01:14:18.077Z,102869.47
2019-02-27T01:16:47.699Z,102865.16
2019-02-27T01:19:18.510Z,102866.87
2019-02-27T01:21:47.839Z,102859.55
2019-02-27T01:24:17.423Z,102857.37
2019-02-27T01:26:47.383Z,102853.49
2019-02-27T01:29:18.097Z,102854.78
2019-02-27T01:31:47.808Z,102850.05
2019-02-27T01:34:18.157Z,102850.47
2019-02-27T01:36:47.476Z,102853.52
2019-02-27T01:39:16.819Z,102850.94
2019-02-27T01:41:46.177Z,102852.24
2019-02-27T01:44:17.343Z,102848.82
2019-02-27T01:46:46.777Z,102837.16
2019-02-27T01:49:16.814Z,102829.83
2019-02-27T01:51:46.384Z,102820.75
2019-02-27T01:54:15.784Z,102823.36
2019-02-27T01:56:45.130Z,102827.70
2019-02-27T01:59:16.926Z,102832.03
2019-02-27T02:01:46.643Z,102832.05
2019-02-27T02:04:19.961Z,102830.31
2019-02-27T02:06:47.205Z,102830.78
2019-02-27T02:09:39.457Z,102827.76
2019-02-27T02:12:12.619Z,102834.67
2019-02-27T02:15:21.732Z,102832.97
2019-02-27T02:18:32.193Z,102832.12
2019-02-27T02:22:00.926Z,102825.64
2019-02-27T02:25:25.080Z,102831.70
2019-02-27T02:28:48.083Z,102827.81
2019-02-27T02:31:52.514Z,102826.11
2019-02-27T02:35:01.902Z,102829.59
2019-02-27T02:38:15.097Z,102818.34
2019-02-27T02:41:34.092Z,102822.69
2019-02-27T02:44:32.544Z,102818.38
2019-02-27T02:47:11.677Z,102815.77
2019-02-27T02:50:08.320Z,102811.48
2019-02-27T02:53:06.587Z,102809.33
2019-02-27T02:56:03.306Z,102805.45
2019-02-27T02:58:39.367Z,102807.61
2019-02-27T03:01:36.142Z,102808.06
2019-02-27T03:04:57.895Z,102801.56
2019-02-27T03:08:12.035Z,102796.80
2019-02-27T03:11:17.752Z,102801.16
2019-02-27T03:14:16.866Z,102803.33
2019-02-27T03:17:27.183Z,102800.29
2019-02-27T03:20:36.086Z,102800.72
2019-02-27T03:23:58.380Z,102796.42
2019-02-27T03:27:17.558Z,102790.81
2019-02-27T03:30:40.073Z,102789.95
2019-02-27T03:33:53.511Z,102786.50
2019-02-27T03:36:46.126Z,102780.02
2019-02-27T03:39:49.083Z,102774.83
2019-02-27T03:42:52.231Z,102764.89
2019-02-27T03:45:50.913Z,102766.18
2019-02-27T03:48:41.506Z,102758.00
2019-02-27T03:51:46.043Z,102753.67
2019-02-27T03:54:36.184Z,102755.41
2019-02-27T03:57:54.893Z,102755.41
2019-02-27T04:00:53.721Z,102761.45
2019-02-27T04:04:17.457Z,102767.51
2019-02-27T04:07:35.767Z,102775.70
2019-02-27T04:10:05.237Z,102777.00
2019-02-27T04:12:34.699Z,102771.81
2019-02-27T04:15:06.150Z,102771.83
2019-02-27T04:17:33.697Z,102776.14
2019-02-27T04:20:03.026Z,102776.16
2019-02-27T04:22:36.214Z,102771.83
2019-02-27T04:25:03.417Z,102777.45
2019-02-27T04:27:32.758Z,102770.53
2019-02-27T04:30:02.103Z,102760.61
2019-02-27T04:32:31.450Z,102762.35
2019-02-27T04:35:00.785Z,102764.50
2019-02-27T04:37:30.103Z,102760.19
2019-02-27T04:39:59.548Z,102758.47
2019-02-27T04:42:28.873Z,102761.05
2019-02-27T04:44:58.217Z,102767.52
2019-02-27T04:47:29.162Z,102769.23
2019-02-27T04:49:58.638Z,102768.37
2019-02-27T04:52:28.010Z,102770.97
2019-02-27T04:54:57.381Z,102768.81
2019-02-27T04:57:26.694Z,102768.38
2019-02-27T04:59:57.711Z,102759.76
2019-02-27T05:02:27.034Z,102757.16
2019-02-27T05:04:56.377Z,102754.57
2019-02-27T05:07:25.716Z,102751.54
2019-02-27T05:09:55.153Z,102759.77
2019-02-27T05:12:25.905Z,102757.16
2019-02-27T05:14:55.210Z,102760.62
2019-02-27T05:17:24.710Z,102757.59
2019-02-27T05:19:54.012Z,102752.43
2019-02-27T05:22:26.566Z,102745.09
2019-02-27T05:24:54.546Z,102744.21
2019-02-27T05:27:23.922Z,102744.66
2019-02-27T05:29:53.238Z,102741.18
2019-02-27T05:32:25.288Z,102735.59
2019-02-27T05:34:53.631Z,102735.58
2019-02-27T05:37:22.971Z,102732.55
2019-02-27T05:39:53.403Z,102732.55
2019-02-27T05:42:22.750Z,102738.58
2019-02-27T05:44:55.503Z,102731.25
2019-02-27T05:47:23.218Z,102732.13
2019-02-27T05:49:52.704Z,102731.23
2019-02-27T05:52:22.052Z,102734.71
2019-02-27T05:54:51.406Z,102736.44
2019-02-27T05:57:21.075Z,102733.84
2019-02-27T05:59:51.782Z,102735.55
2019-02-27T06:02:21.108Z,102737.28
2019-02-27T06:04:50.473Z,102741.16
2019-02-27T06:07:19.798Z,102741.60
2019-02-27T06:09:49.240Z,102746.32
2019-02-27T06:12:18.593Z,102755.39
2019-02-27T06:14:47.902Z,102753.65
2019-02-27T06:17:17.266Z,102752.37
2019-02-27T06:19:47.662Z,102759.68
2019-02-27T06:22:16.977Z,102757.92
2019-02-27T06:24:46.407Z,102762.23
2019-02-27T06:27:16.114Z,102756.64
2019-02-27T06:29:45.429Z,102758.76
2019-02-27T06:32:14.781Z,102751.44
2019-02-27T06:34:44.119Z,102757.46
2019-02-27T06:37:15.604Z,102757.05
2019-02-27T06:39:44.833Z,102755.31
2019-02-27T06:42:14.221Z,102750.56
2019-02-27T06:44:43.550Z,102751.42
2019-02-27T06:47:12.892Z,102750.11
2019-02-27T06:49:42.227Z,102739.77
2019-02-27T06:52:11.570Z,102729.84
2019-02-27T06:54:40.949Z,102731.98
2019-02-27T06:57:10.901Z,102728.96
2019-02-27T06:59:40.287Z,102736.31
2019-02-27T07:02:09.648Z,102737.16
2019-02-27T07:04:39.479Z,102732.41
2019-02-27T07:07:10.622Z,102728.95
2019-02-27T07:09:39.943Z,102728.95
2019-02-27T07:12:09.283Z,102734.98
2019-02-27T07:14:39.102Z,102729.80
2019-02-27T07:17:09.268Z,102729.38
2019-02-27T07:19:38.713Z,102724.63
2019-02-27T07:22:09.319Z,102725.91
2019-02-27T07:24:39.331Z,102728.50
2019-02-27T07:27:08.654Z,102727.66
2019-02-27T07:29:38.004Z,102735.41
2019-02-27T07:32:07.780Z,102743.99
2019-02-27T07:34:37.216Z,102742.69
2019-02-27T07:37:06.620Z,102745.28
2019-02-27T07:39:36.173Z,102745.70
2019-02-27T07:42:05.594Z,102736.69
2019-02-27T07:44:35.839Z,102742.71
2019-02-27T07:47:05.258Z,102737.98
2019-02-27T07:49:34.839Z,102733.25
2019-02-27T07:52:04.182Z,102737.16
2019-02-27T07:54:33.521Z,102741.45
2019-02-27T07:57:03.042Z,102746.62
2019-02-27T07:59:32.607Z,102746.19
2019-02-27T08:02:03.074Z,102749.23
2019-02-27T08:04:32.702Z,102756.16
2019-02-27T08:07:02.188Z,102748.39
2019-02-27T08:09:31.568Z,102747.55
2019-02-27T08:12:03.221Z,102745.39
2019-02-27T08:14:36.960Z,102744.11
2019-02-27T08:17:10.288Z,102735.94
2019-02-27T08:19:34.940Z,102735.55
2019-02-27T08:22:04.412Z,102732.09
2019-02-27T08:24:33.880Z,102725.63
2019-02-27T08:27:03.189Z,102732.53
2019-02-27T08:29:32.645Z,102739.03
2019-02-27T08:32:05.367Z,102738.16
2019-02-27T08:34:34.462Z,102733.86
2019-02-27T08:37:03.880Z,102732.13
2019-02-27T08:39:33.219Z,102728.69
2019-02-27T08:42:03.590Z,102729.55
2019-02-27T08:44:33.472Z,102725.67
2019-02-27T08:47:04.246Z,102715.74
2019-02-27T08:49:33.723Z,102715.30
2019-02-27T08:52:03.042Z,102716.14
2019-02-27T08:54:33.103Z,102711.84
2019-02-27T08:57:02.546Z,102707.08
2019-02-27T08:59:31.867Z,102707.48
2019-02-27T09:02:01.198Z,102707.92
2019-02-27T09:04:30.519Z,102702.30
2019-02-27T09:07:02.797Z,102705.75
2019-02-27T09:09:30.911Z,102708.73
2019-02-27T09:12:00.262Z,102700.93
2019-02-27T09:14:29.586Z,102703.50
2019-02-27T09:16:58.925Z,102708.63
2019-02-27T09:19:28.257Z,102708.19
2019-02-27T09:21:59.940Z,102706.44
2019-02-27T09:24:30.430Z,102695.59
2019-02-27T09:26:59.803Z,102692.92
2019-02-27T09:29:29.126Z,102690.72
2019-02-27T09:31:58.449Z,102694.97
2019-02-27T09:34:27.827Z,102694.03
2019-02-27T09:36:57.165Z,102684.89
2019-02-27T09:39:30.702Z,102682.67
2019-02-27T09:41:57.550Z,102673.09
2019-02-27T09:44:26.901Z,102681.67
2019-02-27T09:46:56.301Z,102685.03
2019-02-27T09:49:25.666Z,102684.16
2019-02-27T09:51:56.345Z,102682.75
2019-02-27T09:54:26.077Z,102670.58
2019-02-27T09:56:55.455Z,102672.66
2019-02-27T09:59:24.786Z,102673.04
2019-02-27T10:01:54.126Z,102663.45
2019-02-27T10:04:25.952Z,102650.39
2019-02-27T10:06:54.514Z,102652.06
2019-02-27T10:09:23.872Z,102645.50
2019-02-27T10:11:53.249Z,102647.17
2019-02-27T10:14:22.577Z,102649.30
2019-02-27T10:16:51.918Z,102651.01
2019-02-27T10:19:21.278Z,102647.91
2019-02-27T10:21:50.644Z,102645.70
2019-02-27T10:24:19.971Z,102643.91
2019-02-27T10:26:49.335Z,102644.70
2019-02-27T10:29:19.094Z,102631.62
2019-02-27T10:31:48.466Z,102628.52
2019-02-27T10:34:18.306Z,102632.30
2019-02-27T10:36:48.451Z,102631.75
2019-02-27T10:39:17.889Z,102632.11
2019-02-27T10:41:49.770Z,102632.02
2019-02-27T10:44:18.311Z,102636.71
2019-02-27T10:46:47.645Z,102636.59
2019-02-27T10:49:21.426Z,102633.47
2019-02-27T10:51:48.065Z,102637.29
2019-02-27T10:54:17.394Z,102625.05
2019-02-27T10:56:46.751Z,102623.66
2019-02-27T10:59:16.101Z,102626.56
2019-02-27T11:01:45.447Z,102626.47
2019-02-27T11:04:15.393Z,102622.91
2019-02-27T11:06:45.237Z,102623.64
2019-02-27T11:09:26.490Z,102618.36
2019-02-27T11:11:57.551Z,102619.08
2019-02-27T11:14:31.627Z,102619.84
2019-02-27T11:17:02.048Z,102618.88
2019-02-27T11:19:29.137Z,102623.11
2019-02-27T11:21:59.095Z,102621.28
2019-02-27T11:24:28.431Z,102618.12
2019-02-27T11:26:57.774Z,102617.11
2019-02-27T11:29:27.144Z,102605.27
2019-02-27T11:31:56.470Z,102603.42
2019-02-27T11:34:25.827Z,102601.98
2019-02-27T11:36:55.162Z,102598.34
2019-02-27T11:39:24.519Z,102596.44
2019-02-27T11:41:53.958Z,102595.40
2019-02-27T11:44:23.284Z,102602.62
2019-02-27T11:46:58.710Z,102599.42
2019-02-27T11:49:23.697Z,102599.25
2019-02-27T11:51:53.190Z,102596.83
2019-02-27T11:54:23.288Z,102594.39
2019-02-27T11:56:56.298Z,102588.11
2019-02-27T11:59:23.735Z,102588.11
2019-02-27T12:01:55.333Z,102579.27
2019-02-27T12:04:24.174Z,102579.27
2019-02-27T12:06:53.496Z,102577.05
2019-02-27T12:09:22.856Z,102577.05
2019-02-27T12:11:52.201Z,102560.91
2019-02-27T12:14:21.589Z,102554.58
2019-02-27T12:16:51.675Z,102557.70
2019-02-27T12:19:21.769Z,102557.70
2019-02-27T12:21:51.108Z,102554.69
2019-02-27T12:24:20.462Z,102548.59
2019-02-27T12:26:49.801Z,102548.28
2019-02-27T12:29:19.191Z,102535.04
2019-02-27T12:31:48.998Z,102535.04
2019-02-27T12:34:18.379Z,102534.03
2019-02-27T12:36:49.932Z,102524.52
2019-02-27T12:39:18.809Z,102525.08
2019-02-27T12:41:49.045Z,102525.08
2019-02-27T12:44:18.417Z,102516.80
2019-02-27T12:46:47.808Z,102516.80
2019-02-27T12:49:19.985Z,102513.38
2019-02-27T12:51:48.215Z,102502.92
2019-02-27T12:54:17.587Z,102502.13
2019-02-27T12:56:47.189Z,102509.14
2019-02-27T12:59:16.558Z,102499.22
2019-02-27T13:01:50.718Z,102501.26
2019-02-27T13:04:19.807Z,102500.39
2019-02-27T13:06:48.097Z,102495.59
2019-02-27T13:09:17.446Z,102489.59
2019-02-27T13:11:46.782Z,102478.75
2019-02-27T13:14:16.151Z,102478.75
2019-02-27T13:16:49.212Z,102478.73
2019-02-27T13:19:16.608Z,102476.52
2019-02-27T13:21:45.976Z,102476.00
2019-02-27T13:24:16.002Z,102469.41
2019-02-27T13:26:45.353Z,102466.12
2019-02-27T13:29:14.694Z,102466.14
2019-02-27T13:31:44.023Z,102459.95
2019-02-27T13:34:13.893Z,102454.78
2019-02-27T13:36:43.856Z,102454.78
2019-02-27T13:39:13.191Z,102456.78
2019-02-27T13:41:45.540Z,102451.56
2019-02-27T13:44:13.639Z,102452.30
2019-02-27T13:46:42.954Z,102447.88
2019-02-27T13:49:14.000Z,102432.11
2019-02-27T13:51:43.361Z,102432.86
2019-02-27T13:54:12.726Z,102425.25
2019-02-27T13:56:42.153Z,102422.27
2019-02-27T13:59:11.760Z,102419.25
2019-02-27T14:01:41.099Z,102420.13
2019-02-27T14:04:10.441Z,102419.09
2019-02-27T14:06:42.853Z,102421.21
2019-02-27T14:09:10.855Z,102401.96
2019-02-27T14:11:40.191Z,102393.59
2019-02-27T14:14:09.571Z,102393.67
2019-02-27T14:16:38.905Z,102389.80
2019-02-27T14:19:08.262Z,102383.66
2019-02-27T14:21:39.569Z,102380.14
2019-02-27T14:24:08.717Z,102371.72
2019-02-27T14:26:38.279Z,102365.09
2019-02-27T14:29:09.117Z,102361.66
2019-02-27T14:31:40.105Z,102354.94
2019-02-27T14:34:09.563Z,102347.91
2019-02-27T14:36:39.324Z,102341.83
2019-02-27T14:39:12.510Z,102333.57
2019-02-27T14:41:41.861Z,102333.42
2019-02-27T14:44:11.175Z,102319.91
2019-02-27T14:46:41.936Z,102316.13
2019-02-27T14:49:13.843Z,102307.41
2019-02-27T14:51:43.402Z,102303.38
2019-02-27T14:54:13.778Z,102294.61
2019-02-27T14:56:43.236Z,102287.93
2019-02-27T14:59:12.827Z,102284.00
2019-02-27T15:01:42.276Z,102280.22
2019-02-27T15:04:11.596Z,102277.58
2019-02-27T15:06:40.926Z,102271.06
2019-02-27T15:09:10.401Z,102271.17
2019-02-27T15:11:39.971Z,102267.77
2019-02-27T15:14:09.563Z,102261.83
2019-02-27T15:16:38.995Z,102252.67
2019-02-27T15:19:08.424Z,102247.48
2019-02-27T15:21:38.015Z,102245.70
2019-02-27T15:24:10.517Z,102250.91
2019-02-27T15:26:45.169Z,102251.48
2019-02-27T15:29:11.078Z,102248.06
2019-02-27T15:31:40.423Z,102242.47
2019-02-27T15:34:12.110Z,102238.92
2019-02-27T15:36:40.835Z,102229.08
2019-02-27T15:39:11.816Z,102224.62
2019-02-27T15:41:41.140Z,102223.58
2019-02-27T15:44:10.485Z,102223.66
2019-02-27T15:46:40.287Z,102228.37
2019-02-27T15:49:12.821Z,102222.33
2019-02-27T15:51:40.781Z,102219.61
2019-02-27T15:54:10.523Z,102222.61
2019-02-27T15:56:42.008Z,102216.38
2019-02-27T15:59:11.037Z,102213.16
2019-02-27T16:01:41.522Z,102216.19
2019-02-27T16:04:10.847Z,102220.63
2019-02-27T16:06:40.687Z,102213.11
2019-02-27T16:09:10.628Z,102218.31
2019-02-27T16:11:39.962Z,102216.98
2019-02-27T16:14:10.295Z,102220.23
2019-02-27T16:16:40.811Z,102213.97
2019-02-27T16:19:10.812Z,102222.46
2019-02-27T16:21:40.930Z,102224.62
2019-02-27T16:24:10.304Z,102226.95
2019-02-27T16:26:39.624Z,102227.49
2019-02-27T16:29:08.950Z,102230.20
2019-02-27T16:31:39.982Z,102224.30
2019-02-27T16:34:09.371Z,102223.05
2019-02-27T16:36:41.617Z,102223.09
2019-02-27T16:39:11.341Z,102222.98
2019-02-27T16:41:40.727Z,102210.97
2019-02-27T16:44:11.140Z,102212.23
2019-02-27T16:46:44.576Z,102207.80
2019-02-27T16:49:11.833Z,102206.92
2019-02-27T16:51:42.950Z,102205.47
2019-02-27T16:54:13.302Z,102201.75
2019-02-27T16:56:46.563Z,102199.09
2019-02-27T16:59:13.760Z,102200.45
2019-02-27T17:01:43.103Z,102198.66
2019-02-27T17:04:12.459Z,102192.50
2019-02-27T17:06:43.292Z,102191.52
2019-02-27T17:09:13.348Z,102191.86
2019-02-27T17:11:42.765Z,102190.46
2019-02-27T17:14:12.134Z,102188.56
2019-02-27T17:16:44.634Z,102190.81
2019-02-27T17:19:12.727Z,102198.36
2019-02-27T17:21:42.109Z,102193.14
2019-02-27T17:24:11.430Z,102198.39
2019-02-27T17:26:40.763Z,102200.98
2019-02-27T17:29:10.115Z,102209.31
2019-02-27T17:31:48.929Z,102204.86
2019-02-27T17:34:13.668Z,102213.61
2019-02-27T17:36:43.175Z,102212.95
2019-02-27T17:39:12.506Z,102217.20
2019-02-27T17:41:44.748Z,102221.84
2019-02-27T17:44:13.001Z,102253.22
2019-02-27T17:46:42.320Z,102222.52
2019-02-27T17:49:11.654Z,102229.59
2019-02-27T17:51:42.120Z,102226.76
2019-02-27T17:54:11.494Z,102263.03
2019-02-27T17:56:40.864Z,102231.45
2019-02-27T17:59:10.230Z,102236.61
2019-02-27T18:01:39.618Z,102235.73
2019-02-27T18:04:08.952Z,102242.29
2019-02-27T18:06:38.302Z,102237.99
2019-02-27T18:09:08.598Z,102242.27
2019-02-27T18:11:37.966Z,102242.63
2019-02-27T18:14:09.890Z,102246.44
2019-02-27T18:16:38.390Z,102244.56
2019-02-27T18:19:07.901Z,102252.22
2019-02-27T18:21:37.229Z,102245.55
2019-02-27T18:24:06.864Z,102244.94
2019-02-27T18:26:36.222Z,102245.18
2019-02-27T18:29:07.730Z,102236.75
2019-02-27T18:31:36.854Z,102239.16
2019-02-27T18:34:06.201Z,102229.86
2019-02-27T18:36:42.595Z,102227.00
2019-02-27T18:39:07.805Z,102231.96
2019-02-27T18:41:39.748Z,102221.70
2019-02-27T18:44:09.210Z,102220.59
2019-02-27T18:46:38.549Z,102227.75
2019-02-27T18:49:07.904Z,102234.89
2019-02-27T18:51:37.248Z,102224.63
2019-02-27T18:54:06.627Z,102221.64
2019-02-27T18:56:36.960Z,102217.95
2019-02-27T18:59:07.083Z,102214.09
2019-02-27T19:01:36.451Z,102212.19
2019-02-27T19:04:06.585Z,102213.94
2019-02-27T19:06:36.352Z,102203.73
2019-02-27T19:09:06.954Z,102211.58
2019-02-27T19:11:36.576Z,102214.03
2019-02-27T19:14:06.478Z,102214.03
2019-02-27T19:16:38.426Z,102210.20
2019-02-27T19:19:07.870Z,102205.52
2019-02-27T19:21:37.432Z,102210.45
2019-02-27T19:24:06.792Z,102199.75
2019-02-27T19:26:36.243Z,102197.67
2019-02-27T19:29:05.850Z,102197.67
2019-02-27T19:31:35.440Z,102199.64
2019-02-27T19:34:07.442Z,102199.64
2019-02-27T19:36:36.030Z,102202.47
2019-02-27T19:39:07.260Z,102202.47
2019-02-27T19:41:39.539Z,102203.00
2019-02-27T19:44:08.087Z,102184.96
2019-02-27T19:46:37.456Z,102188.55
2019-02-27T19:49:06.796Z,102183.42
2019-02-27T19:51:36.138Z,102183.42
2019-02-27T19:54:05.546Z,102190.48
2019-02-27T19:56:35.543Z,102187.25
2019-02-27T19:59:05.660Z,102179.98
2019-02-27T20:01:36.095Z,102179.98
2019-02-27T20:04:09.047Z,102173.63
2019-02-27T20:06:38.454Z,102173.63
2019-02-27T20:09:09.075Z,102162.86
2019-02-27T20:11:40.298Z,102162.50
2019-02-27T20:14:09.993Z,102168.31
2019-02-27T20:16:39.427Z,102151.14
2019-02-27T20:19:32.773Z,102151.14
2019-02-27T20:22:02.113Z,102150.81
2019-02-27T20:24:32.409Z,102150.81
2019-02-27T20:27:02.600Z,102150.89
2019-02-27T20:29:32.065Z,102154.06
2019-02-27T20:32:01.873Z,102149.81
2019-02-27T20:34:31.240Z,102151.65
2019-02-27T20:37:03.262Z,102148.23
2019-02-27T20:39:31.677Z,102137.06
2019-02-27T20:42:01.048Z,102139.84
2019-02-27T20:44:30.390Z,102142.94
2019-02-27T20:46:59.855Z,102137.31
2019-02-27T20:49:29.206Z,102127.05
2019-02-27T20:51:58.548Z,102127.05
2019-02-27T20:54:27.904Z,102122.86
2019-02-27T20:56:57.303Z,102122.86
2019-02-27T20:59:26.632Z,102126.98
2019-02-27T21:01:56.037Z,102131.39
2019-02-27T21:04:25.427Z,102131.39
2019-02-27T21:06:54.751Z,102147.97
2019-02-27T21:09:24.080Z,102147.97
2019-02-27T21:11:54.867Z,102137.63
2019-02-27T21:14:24.284Z,102137.63
2019-02-27T21:16:53.558Z,102134.58
2019-02-27T21:19:22.903Z,102137.65
2019-02-27T21:21:54.419Z,102137.65
2019-02-27T21:24:23.475Z,102141.61
2019-02-27T21:26:54.155Z,102142.94
2019-02-27T21:29:23.638Z,102153.42
2019-02-27T21:31:53.026Z,102155.24
2019-02-27T21:34:22.369Z,102161.84
2019-02-27T21:36:51.704Z,102173.20
2019-02-27T21:39:22.545Z,102163.70
2019-02-27T21:41:53.295Z,102163.86
2019-02-27T21:44:25.706Z,102168.34
2019-02-27T21:46:54.859Z,102164.11
2019-02-27T21:49:25.182Z,102156.80
2019-02-27T21:51:54.560Z,102159.40
2019-02-27T21:54:23.916Z,102161.66
2019-02-27T21:56:55.110Z,102168.66
2019-02-27T21:59:24.335Z,102168.72
2019-02-27T22:01:56.288Z,102164.14
2019-02-27T22:04:24.832Z,102164.14
2019-02-27T22:06:54.268Z,102154.73
2019-02-27T22:09:23.662Z,102154.73
2019-02-27T22:11:52.977Z,102168.17
2019-02-27T22:14:22.300Z,102174.27
2019-02-27T22:16:51.642Z,102173.88
2019-02-27T22:19:20.963Z,102170.91
2019-02-27T22:21:50.336Z,102180.03
2019-02-27T22:24:20.988Z,102178.34
2019-02-27T22:26:50.886Z,102164.03
2019-02-27T22:29:20.226Z,102161.05
2019-02-27T22:31:49.578Z,102168.87
2019-02-27T22:34:18.912Z,102171.48
2019-02-27T22:36:48.255Z,102165.02
2019-02-27T22:39:17.683Z,102160.74
2019-02-27T22:41:47.038Z,102160.38
2019-02-27T22:44:16.354Z,102160.88
2019-02-27T22:46:47.854Z,102154.44
2019-02-27T22:49:16.771Z,102156.23
2019-02-27T22:51:48.322Z,102148.87
2019-02-27T22:54:17.191Z,102140.62
2019-02-27T22:56:50.050Z,102132.88
2019-02-27T22:59:17.598Z,102120.73
2019-02-27T23:01:51.064Z,102110.77
2019-02-27T23:04:20.474Z,102110.45
2019-02-27T23:06:51.293Z,102117.83
2019-02-27T23:11:53.761Z,102106.48
2019-02-27T23:14:23.063Z,102117.39
2019-02-27T23:16:52.538Z,102122.59
2019-02-27T23:19:22.041Z,102126.50
2019-02-27T23:21:51.394Z,102124.39
2019-02-27T23:24:20.740Z,102111.39
2019-02-27T23:26:54.321Z,102126.18
2019-02-27T23:29:21.274Z,102123.16
2019-02-27T23:31:50.609Z,102117.09
2019-02-27T23:34:19.959Z,102110.70
2019-02-27T23:36:49.287Z,102112.51
2019-02-27T23:39:18.635Z,102116.04
2019-02-27T23:41:47.966Z,102122.19
2019-02-27T23:44:17.322Z,102113.64
2019-02-27T23:46:51.334Z,102112.87
2019-02-27T23:49:17.867Z,102115.59
2019-02-27T23:51:48.409Z,102114.80
2019-02-27T23:54:18.059Z,102118.70
2019-02-27T23:56:47.421Z,102120.05
2019-02-27T23:59:16.743Z,102120.91
